createdAt,value
2022-11-16T00:00:38.839Z,8.90
2022-11-16T00:01:44.914Z,8.89
2022-11-16T00:02:52.103Z,8.89
2022-11-16T00:03:57.750Z,8.88
2022-11-16T00:05:00.492Z,8.87
2022-11-16T00:06:07.163Z,8.87
2022-11-16T00:07:11.784Z,8.86
2022-11-16T00:08:14.531Z,8.84
2022-11-16T00:09:27.292Z,8.82
2022-11-16T00:10:30.010Z,8.81
2022-11-16T00:11:35.340Z,8.81
2022-11-16T00:12:38.243Z,8.80
2022-11-16T00:13:43.553Z,8.81
2022-11-16T00:14:46.331Z,8.84
2022-11-16T00:15:59.815Z,8.85
2022-11-16T00:17:04.620Z,8.87
2022-11-16T00:18:10.180Z,8.89
2022-11-16T00:19:14.389Z,8.92
2022-11-16T00:20:17.222Z,8.94
2022-11-16T00:21:21.393Z,8.95
2022-11-16T00:22:24.142Z,8.95
2022-11-16T00:23:30.739Z,8.95
2022-11-16T00:24:34.821Z,8.95
2022-11-16T00:25:38.435Z,8.97
2022-11-16T00:26:43.749Z,8.96
2022-11-16T00:27:46.423Z,8.97
2022-11-16T00:28:50.999Z,8.96
2022-11-16T00:29:56.492Z,8.96
2022-11-16T00:31:00.801Z,8.97
2022-11-16T00:32:03.731Z,8.98
2022-11-16T00:33:12.382Z,8.97
2022-11-16T00:34:17.150Z,8.98
2022-11-16T00:35:21.158Z,8.99
2022-11-16T00:36:25.840Z,9.00
2022-11-16T00:37:29.642Z,9.00
2022-11-16T00:38:33.111Z,9.00
2022-11-16T00:39:37.160Z,8.99
2022-11-16T00:40:39.892Z,9.00
2022-11-16T00:41:45.480Z,9.01
2022-11-16T00:42:48.260Z,9.01
2022-11-16T00:43:52.329Z,9.01
2022-11-16T00:44:55.132Z,9.02
2022-11-16T00:45:58.973Z,9.03
2022-11-16T00:47:01.635Z,9.04
2022-11-16T00:48:06.823Z,9.04
2022-11-16T00:49:11.443Z,9.03
2022-11-16T00:50:17.854Z,9.01
2022-11-16T00:51:20.637Z,9.00
2022-11-16T00:52:27.670Z,8.98
2022-11-16T00:53:31.546Z,8.96
2022-11-16T00:54:36.772Z,8.94
2022-11-16T00:55:41.461Z,8.90
2022-11-16T00:56:46.008Z,8.91
2022-11-16T00:57:49.703Z,8.90
2022-11-16T00:58:56.022Z,8.90
2022-11-16T00:59:58.666Z,8.89
2022-11-16T01:01:07.634Z,8.90
2022-11-16T01:02:10.502Z,8.90
2022-11-16T01:03:17.998Z,8.91
2022-11-16T01:04:23.914Z,8.92
2022-11-16T01:05:27.642Z,8.95
2022-11-16T01:06:30.540Z,8.97
2022-11-16T01:07:37.010Z,8.96
2022-11-16T01:08:40.770Z,8.98
2022-11-16T01:09:44.922Z,8.97
2022-11-16T01:10:49.360Z,8.98
2022-11-16T01:12:10.196Z,8.97
2022-11-16T01:13:14.496Z,8.97
2022-11-16T01:14:20.913Z,8.97
2022-11-16T01:15:26.533Z,8.97
2022-11-16T01:16:29.183Z,8.99
2022-11-16T01:17:34.132Z,8.98
2022-11-16T01:18:37.360Z,8.97
2022-11-16T01:19:42.991Z,8.97
2022-11-16T01:20:45.984Z,8.97
2022-11-16T01:21:51.223Z,8.97
2022-11-16T01:22:55.294Z,8.97
2022-11-16T01:23:59.062Z,8.95
2022-11-16T01:25:02.622Z,8.95
2022-11-16T01:26:07.441Z,8.95
2022-11-16T01:27:12.280Z,8.96
2022-11-16T01:28:21.853Z,8.96
2022-11-16T01:29:28.092Z,8.96
2022-11-16T01:30:34.614Z,8.95
2022-11-16T01:31:42.994Z,8.95
2022-11-16T01:32:46.850Z,8.95
2022-11-16T01:33:50.116Z,8.95
2022-11-16T01:35:00.053Z,8.96
2022-11-16T01:36:15.040Z,8.97
2022-11-16T01:37:20.417Z,8.97
2022-11-16T01:38:29.399Z,8.97
2022-11-16T01:39:35.094Z,8.97
2022-11-16T01:40:40.072Z,8.98
2022-11-16T01:41:44.640Z,8.99
2022-11-16T01:42:47.302Z,8.98
2022-11-16T01:43:55.248Z,8.98
2022-11-16T01:45:03.784Z,8.99
2022-11-16T01:46:07.539Z,8.99
2022-11-16T01:47:12.804Z,8.99
2022-11-16T01:48:20.777Z,8.99
2022-11-16T01:49:25.273Z,8.99
2022-11-16T01:50:37.558Z,8.98
2022-11-16T01:51:44.691Z,8.99
2022-11-16T01:52:55.034Z,9.00
2022-11-16T01:54:03.367Z,8.98
2022-11-16T01:55:08.840Z,8.98
2022-11-16T01:56:35.644Z,8.98
2022-11-16T01:57:56.072Z,8.97
2022-11-16T01:59:04.112Z,8.98
2022-11-16T02:00:14.013Z,8.98
2022-11-16T02:01:21.434Z,8.99
2022-11-16T02:02:30.540Z,8.98
2022-11-16T02:03:34.492Z,8.98
2022-11-16T02:04:40.227Z,8.98
2022-11-16T02:05:59.900Z,8.98
2022-11-16T02:07:11.416Z,8.97
2022-11-16T02:08:54.105Z,8.95
2022-11-16T02:10:11.192Z,8.94
2022-11-16T02:11:33.476Z,8.91
2022-11-16T02:12:55.259Z,8.88
2022-11-16T02:14:18.959Z,8.87
2022-11-16T02:15:27.363Z,8.87
2022-11-16T02:16:51.170Z,8.86
2022-11-16T02:18:17.798Z,8.86
2022-11-16T02:19:37.787Z,8.85
2022-11-16T02:20:56.850Z,8.84
2022-11-16T02:22:08.781Z,8.84
2022-11-16T02:23:48.078Z,8.84
2022-11-16T02:24:57.481Z,8.82
2022-11-16T02:26:13.274Z,8.82
2022-11-16T02:27:49.789Z,8.82
2022-11-16T02:29:05.063Z,8.80
2022-11-16T02:30:09.876Z,8.78
2022-11-16T02:31:20.481Z,8.77
2022-11-16T02:32:28.623Z,8.77
2022-11-16T02:33:34.672Z,8.76
2022-11-16T02:34:44.178Z,8.75
2022-11-16T02:35:50.766Z,8.73
2022-11-16T02:36:57.801Z,8.73
2022-11-16T02:38:04.456Z,8.73
2022-11-16T02:39:13.608Z,8.72
2022-11-16T02:40:17.391Z,8.71
2022-11-16T02:41:23.236Z,8.70
2022-11-16T02:42:30.205Z,8.71
2022-11-16T02:43:38.376Z,8.71
2022-11-16T02:44:47.552Z,8.72
2022-11-16T02:45:54.649Z,8.72
2022-11-16T02:47:00.200Z,8.73
2022-11-16T02:48:07.630Z,8.73
2022-11-16T02:49:12.618Z,8.72
2022-11-16T02:50:19.813Z,8.74
2022-11-16T02:51:23.466Z,8.75
2022-11-16T02:52:27.920Z,8.78
2022-11-16T02:53:33.401Z,8.79
2022-11-16T02:54:37.136Z,8.81
2022-11-16T02:55:39.944Z,8.82
2022-11-16T02:56:45.484Z,8.84
2022-11-16T02:57:54.680Z,8.85
2022-11-16T02:58:59.647Z,8.86
2022-11-16T03:00:09.292Z,8.86
2022-11-16T03:01:18.240Z,8.87
2022-11-16T03:02:24.581Z,8.87
2022-11-16T03:03:33.173Z,8.87
2022-11-16T03:04:45.552Z,8.87
2022-11-16T03:05:52.011Z,8.87
2022-11-16T03:06:57.119Z,8.86
2022-11-16T03:08:22.681Z,8.87
2022-11-16T03:09:30.040Z,8.88
2022-11-16T03:10:51.357Z,8.88
2022-11-16T03:12:02.290Z,8.88
2022-11-16T03:13:10.812Z,8.88
2022-11-16T03:14:16.764Z,8.88
2022-11-16T03:15:21.358Z,8.88
2022-11-16T03:16:29.274Z,8.90
2022-11-16T03:17:38.017Z,8.91
2022-11-16T03:18:44.627Z,8.90
2022-11-16T03:19:51.884Z,8.89
2022-11-16T03:21:03.799Z,8.86
2022-11-16T03:22:12.878Z,8.85
2022-11-16T03:23:17.730Z,8.84
2022-11-16T03:24:22.718Z,8.82
2022-11-16T03:25:30.601Z,8.81
2022-11-16T03:26:40.140Z,8.79
2022-11-16T03:27:49.851Z,8.78
2022-11-16T03:28:58.775Z,8.76
2022-11-16T03:30:05.866Z,8.77
2022-11-16T03:31:15.147Z,8.76
2022-11-16T03:32:24.480Z,8.77
2022-11-16T03:33:31.429Z,8.79
2022-11-16T03:34:38.578Z,8.80
2022-11-16T03:35:47.200Z,8.82
2022-11-16T03:36:52.181Z,8.84
2022-11-16T03:37:57.447Z,8.85
2022-11-16T03:39:06.236Z,8.86
2022-11-16T03:40:12.762Z,8.87
2022-11-16T03:41:19.379Z,8.88
2022-11-16T03:42:26.822Z,8.90
2022-11-16T03:43:32.511Z,8.90
2022-11-16T03:44:36.887Z,8.90
2022-11-16T03:45:43.352Z,8.90
2022-11-16T03:46:48.402Z,8.91
2022-11-16T03:47:54.313Z,8.92
2022-11-16T03:48:59.071Z,8.92
2022-11-16T03:50:08.656Z,8.92
2022-11-16T03:51:11.961Z,8.94
2022-11-16T03:52:21.001Z,8.95
2022-11-16T03:53:26.879Z,8.93
2022-11-16T03:54:31.819Z,8.95
2022-11-16T03:55:36.541Z,8.96
2022-11-16T03:56:40.812Z,8.96
2022-11-16T03:57:44.390Z,8.98
2022-11-16T03:58:48.411Z,9.00
2022-11-16T03:59:51.524Z,9.00
2022-11-16T04:00:56.239Z,9.00
2022-11-16T04:02:02.070Z,9.01
2022-11-16T04:03:06.600Z,9.01
2022-11-16T04:04:31.720Z,9.01
2022-11-16T04:06:05.359Z,8.99
2022-11-16T04:07:26.659Z,8.98
2022-11-16T04:08:48.284Z,8.97
2022-11-16T04:10:10.421Z,8.96
2022-11-16T04:11:39.591Z,8.95
2022-11-16T04:13:03.443Z,8.93
2022-11-16T04:14:27.902Z,8.92
2022-11-16T04:15:51.204Z,8.89
2022-11-16T04:17:14.301Z,8.88
2022-11-16T04:18:43.549Z,8.88
2022-11-16T04:20:08.273Z,8.86
2022-11-16T04:21:37.718Z,8.85
2022-11-16T04:23:04.430Z,8.83
2022-11-16T04:24:13.550Z,8.81
2022-11-16T04:25:21.918Z,8.80
2022-11-16T04:26:58.199Z,8.80
2022-11-16T04:28:16.773Z,8.78
2022-11-16T04:29:26.480Z,8.77
2022-11-16T04:30:50.891Z,8.77
2022-11-16T04:32:13.670Z,8.76
2022-11-16T04:33:37.728Z,8.75
2022-11-16T04:35:01.180Z,8.74
2022-11-16T04:36:25.253Z,8.75
2022-11-16T04:37:47.495Z,8.75
2022-11-16T04:38:55.777Z,8.75
2022-11-16T04:40:03.809Z,8.76
2022-11-16T04:41:28.669Z,8.77
2022-11-16T04:42:32.480Z,8.78
2022-11-16T04:43:37.390Z,8.79
2022-11-16T04:44:54.871Z,8.81
2022-11-16T04:46:19.039Z,8.80
2022-11-16T04:47:21.878Z,8.82
2022-11-16T04:48:27.082Z,8.83
2022-11-16T04:49:34.071Z,8.84
2022-11-16T04:50:39.639Z,8.87
2022-11-16T04:51:45.949Z,8.86
2022-11-16T04:52:49.691Z,8.88
2022-11-16T04:53:52.421Z,8.88
2022-11-16T04:54:59.880Z,8.89
2022-11-16T04:56:04.437Z,8.88
2022-11-16T04:57:09.146Z,8.90
2022-11-16T04:58:12.881Z,8.90
2022-11-16T04:59:18.072Z,8.91
2022-11-16T05:00:21.496Z,8.91
2022-11-16T05:01:41.087Z,8.91
2022-11-16T05:02:45.410Z,8.91
2022-11-16T05:03:48.111Z,8.92
2022-11-16T05:04:52.732Z,8.93
2022-11-16T05:05:59.053Z,8.92
2022-11-16T05:07:02.156Z,8.92
2022-11-16T05:08:09.065Z,8.92
2022-11-16T05:09:12.682Z,8.92
2022-11-16T05:10:16.893Z,8.92
2022-11-16T05:11:22.381Z,8.92
2022-11-16T05:12:29.553Z,8.92
2022-11-16T05:13:35.840Z,8.91
2022-11-16T05:14:40.810Z,8.91
2022-11-16T05:15:46.930Z,8.90
2022-11-16T05:16:49.812Z,8.89
2022-11-16T05:17:55.864Z,8.88
2022-11-16T05:19:20.372Z,8.87
2022-11-16T05:20:42.052Z,8.85
2022-11-16T05:21:46.888Z,8.84
2022-11-16T05:22:56.041Z,8.82
2022-11-16T05:24:18.994Z,8.81
2022-11-16T05:25:23.287Z,8.80
2022-11-16T05:26:26.390Z,8.78
2022-11-16T05:27:31.172Z,8.78
2022-11-16T05:28:35.877Z,8.77
2022-11-16T05:29:40.197Z,8.77
2022-11-16T05:30:46.916Z,8.77
2022-11-16T05:31:53.856Z,8.76
2022-11-16T05:32:58.930Z,8.76
2022-11-16T05:34:03.143Z,8.78
2022-11-16T05:35:08.431Z,8.77
2022-11-16T05:36:11.833Z,8.77
2022-11-16T05:37:19.301Z,8.79
2022-11-16T05:38:22.162Z,8.79
2022-11-16T05:39:30.523Z,8.80
2022-11-16T05:40:33.798Z,8.80
2022-11-16T05:41:38.812Z,8.80
2022-11-16T05:42:42.270Z,8.79
2022-11-16T05:43:46.522Z,8.79
2022-11-16T05:44:54.997Z,8.78
2022-11-16T05:45:58.911Z,8.79
2022-11-16T05:47:01.720Z,8.77
2022-11-16T05:48:05.671Z,8.78
2022-11-16T05:49:08.993Z,8.78
2022-11-16T05:50:13.392Z,8.79
2022-11-16T05:51:17.908Z,8.77
2022-11-16T05:52:24.943Z,8.80
2022-11-16T05:53:27.782Z,8.79
2022-11-16T05:54:31.535Z,8.80
2022-11-16T05:55:36.549Z,8.79
2022-11-16T05:56:42.314Z,8.79
2022-11-16T05:57:45.552Z,8.80
2022-11-16T05:58:49.359Z,8.81
2022-11-16T05:59:52.142Z,8.81
2022-11-16T06:00:56.006Z,8.82
2022-11-16T06:01:59.933Z,8.82
2022-11-16T06:03:03.689Z,8.83
2022-11-16T06:04:10.832Z,8.84
2022-11-16T06:05:14.682Z,8.84
2022-11-16T06:06:18.674Z,8.84
2022-11-16T06:07:22.663Z,8.84
2022-11-16T06:08:27.192Z,8.83
2022-11-16T06:09:33.463Z,8.84
2022-11-16T06:10:43.568Z,8.83
2022-11-16T06:11:47.482Z,8.83
2022-11-16T06:12:50.233Z,8.84
2022-11-16T06:13:55.681Z,8.85
2022-11-16T06:14:58.343Z,8.86
2022-11-16T06:16:02.414Z,8.86
2022-11-16T06:17:08.241Z,8.87
2022-11-16T06:18:10.947Z,8.89
2022-11-16T06:19:14.633Z,8.90
2022-11-16T06:20:17.862Z,8.90
2022-11-16T06:21:25.775Z,8.92
2022-11-16T06:22:29.678Z,8.92
2022-11-16T06:23:35.503Z,8.92
2022-11-16T06:24:39.487Z,8.93
2022-11-16T06:25:42.411Z,8.94
2022-11-16T06:26:47.554Z,8.93
2022-11-16T06:27:50.242Z,8.94
2022-11-16T06:28:56.253Z,8.95
2022-11-16T06:29:59.434Z,8.96
2022-11-16T06:31:04.732Z,8.98
2022-11-16T06:32:12.082Z,8.98
2022-11-16T06:33:17.213Z,9.00
2022-11-16T06:34:20.921Z,9.00
2022-11-16T06:35:24.253Z,9.01
2022-11-16T06:36:29.095Z,9.00
2022-11-16T06:37:33.969Z,9.01
2022-11-16T06:38:40.095Z,9.01
2022-11-16T06:39:44.933Z,9.01
2022-11-16T06:40:52.008Z,9.03
2022-11-16T06:41:56.063Z,9.04
2022-11-16T06:42:59.116Z,9.04
2022-11-16T06:44:03.370Z,9.05
2022-11-16T06:45:11.051Z,9.05
2022-11-16T06:46:18.382Z,9.06
2022-11-16T06:47:21.205Z,9.06
2022-11-16T06:48:25.197Z,9.07
2022-11-16T06:49:28.255Z,9.08
2022-11-16T06:50:35.845Z,9.08
2022-11-16T06:51:39.542Z,9.09
2022-11-16T06:52:43.350Z,9.09
2022-11-16T06:53:48.553Z,9.11
2022-11-16T06:54:51.541Z,9.12
2022-11-16T06:55:55.370Z,9.13
2022-11-16T06:56:59.223Z,9.13
2022-11-16T06:58:02.296Z,9.13
2022-11-16T06:59:06.142Z,9.13
2022-11-16T07:00:11.313Z,9.14
2022-11-16T07:01:15.370Z,9.13
2022-11-16T07:02:21.573Z,9.12
2022-11-16T07:03:25.783Z,9.11
2022-11-16T07:04:28.563Z,9.10
2022-11-16T07:05:35.348Z,9.11
2022-11-16T07:06:38.303Z,9.11
2022-11-16T07:07:42.213Z,9.12
2022-11-16T07:08:47.486Z,9.12
2022-11-16T07:09:54.184Z,9.13
2022-11-16T07:11:03.935Z,9.13
2022-11-16T07:12:08.682Z,9.13
2022-11-16T07:13:15.673Z,9.15
2022-11-16T07:14:19.123Z,9.16
2022-11-16T07:15:23.087Z,9.17
2022-11-16T07:16:25.773Z,9.18
2022-11-16T07:17:35.409Z,9.18
2022-11-16T07:18:40.484Z,9.17
2022-11-16T07:19:44.304Z,9.17
2022-11-16T07:20:46.973Z,9.17
2022-11-16T07:21:50.779Z,9.15
2022-11-16T07:22:54.938Z,9.13
2022-11-16T07:24:00.265Z,9.12
2022-11-16T07:25:02.987Z,9.10
2022-11-16T07:26:07.870Z,9.10
2022-11-16T07:27:26.543Z,9.09
2022-11-16T07:28:29.790Z,9.08
2022-11-16T07:29:33.971Z,9.08
2022-11-16T07:30:50.255Z,9.08
2022-11-16T07:31:59.493Z,9.08
2022-11-16T07:33:23.209Z,9.07
2022-11-16T07:34:45.342Z,9.10
2022-11-16T07:35:52.328Z,9.11
2022-11-16T07:36:55.136Z,9.13
2022-11-16T07:37:59.001Z,9.13
2022-11-16T07:39:03.160Z,9.16
2022-11-16T07:40:08.552Z,9.17
2022-11-16T07:41:14.231Z,9.17
2022-11-16T07:42:26.142Z,9.19
2022-11-16T07:43:49.911Z,9.19
2022-11-16T07:44:59.125Z,9.16
2022-11-16T07:47:28.459Z,9.12
2022-11-16T07:48:32.922Z,9.12
2022-11-16T07:49:57.094Z,9.10
2022-11-16T07:51:05.391Z,9.09
2022-11-16T07:52:10.276Z,9.07
2022-11-16T07:53:28.257Z,9.07
2022-11-16T07:54:33.344Z,9.08
2022-11-16T07:55:36.333Z,9.09
2022-11-16T07:56:40.915Z,9.10
2022-11-16T07:57:47.939Z,9.09
2022-11-16T07:58:54.763Z,9.10
2022-11-16T07:59:58.475Z,9.09
2022-11-16T08:01:06.134Z,9.11
2022-11-16T08:02:11.405Z,9.12
2022-11-16T08:03:21.879Z,9.12
2022-11-16T08:04:29.748Z,9.12
2022-11-16T08:05:32.502Z,9.12
2022-11-16T08:06:36.266Z,9.13
2022-11-16T08:07:39.723Z,9.13
2022-11-16T08:08:43.620Z,9.16
2022-11-16T08:09:50.365Z,9.16
2022-11-16T08:10:53.166Z,9.16
2022-11-16T08:11:57.117Z,9.18
2022-11-16T08:13:00.193Z,9.20
2022-11-16T08:14:04.028Z,9.23
2022-11-16T08:15:07.608Z,9.23
2022-11-16T08:16:13.436Z,9.24
2022-11-16T08:17:16.841Z,9.25
2022-11-16T08:18:21.040Z,9.26
2022-11-16T08:19:24.862Z,9.26
2022-11-16T08:20:28.925Z,9.24
2022-11-16T08:21:32.803Z,9.23
2022-11-16T08:22:38.382Z,9.23
2022-11-16T08:23:56.913Z,9.23
2022-11-16T08:25:02.935Z,9.21
2022-11-16T08:26:09.490Z,9.20
2022-11-16T08:27:15.606Z,9.21
2022-11-16T08:28:20.110Z,9.22
2022-11-16T08:29:24.275Z,9.22
2022-11-16T08:30:29.002Z,9.23
2022-11-16T08:31:31.812Z,9.25
2022-11-16T08:32:45.842Z,9.25
2022-11-16T08:33:51.924Z,9.26
2022-11-16T08:34:55.844Z,9.26
2022-11-16T08:35:59.691Z,9.26
2022-11-16T08:37:03.350Z,9.27
2022-11-16T08:38:15.442Z,9.26
2022-11-16T08:39:19.182Z,9.28
2022-11-16T08:40:23.447Z,9.29
2022-11-16T08:41:27.632Z,9.31
2022-11-16T08:42:31.361Z,9.33
2022-11-16T08:43:36.130Z,9.36
2022-11-16T08:44:40.280Z,9.41
2022-11-16T08:45:50.542Z,9.43
2022-11-16T08:46:55.522Z,9.45
2022-11-16T08:48:09.162Z,9.47
2022-11-16T08:49:13.352Z,9.50
2022-11-16T08:50:16.761Z,9.52
2022-11-16T08:51:21.197Z,9.52
2022-11-16T08:52:31.943Z,9.53
2022-11-16T08:53:36.022Z,9.54
2022-11-16T08:54:41.553Z,9.55
2022-11-16T08:55:45.911Z,9.56
2022-11-16T08:56:49.703Z,9.57
2022-11-16T08:57:54.190Z,9.61
2022-11-16T08:58:59.316Z,9.62
2022-11-16T09:00:03.138Z,9.63
2022-11-16T09:01:11.331Z,9.64
2022-11-16T09:02:14.404Z,9.67
2022-11-16T09:03:18.300Z,9.66
2022-11-16T09:04:23.124Z,9.67
2022-11-16T09:05:25.811Z,9.68
2022-11-16T09:06:29.734Z,9.69
2022-11-16T09:07:32.631Z,9.73
2022-11-16T09:08:38.063Z,9.74
2022-11-16T09:09:41.833Z,9.76
2022-11-16T09:10:45.880Z,9.78
2022-11-16T09:11:52.287Z,9.79
2022-11-16T09:12:54.972Z,9.77
2022-11-16T09:13:59.253Z,9.76
2022-11-16T09:15:01.880Z,9.76
2022-11-16T09:16:06.359Z,9.76
2022-11-16T09:17:09.055Z,9.74
2022-11-16T09:18:12.822Z,9.73
2022-11-16T09:19:16.652Z,9.72
2022-11-16T09:20:19.362Z,9.70
2022-11-16T09:21:24.583Z,9.70
2022-11-16T09:22:28.262Z,9.72
2022-11-16T09:23:30.971Z,9.74
2022-11-16T09:24:34.909Z,9.74
2022-11-16T09:25:37.991Z,9.76
2022-11-16T09:26:43.369Z,9.75
2022-11-16T09:27:46.013Z,9.76
2022-11-16T09:28:50.074Z,9.78
2022-11-16T09:29:53.194Z,9.80
2022-11-16T09:31:01.160Z,9.80
2022-11-16T09:32:05.099Z,9.79
2022-11-16T09:33:07.801Z,9.80
2022-11-16T09:34:11.552Z,9.79
2022-11-16T09:35:15.309Z,9.80
2022-11-16T09:36:17.891Z,9.80
2022-11-16T09:37:21.681Z,9.80
2022-11-16T09:38:40.264Z,9.82
2022-11-16T09:39:48.191Z,9.81
2022-11-16T09:40:50.905Z,9.80
2022-11-16T09:42:03.180Z,9.81
2022-11-16T09:43:13.772Z,9.80
2022-11-16T09:44:27.621Z,9.80
2022-11-16T09:45:40.152Z,9.80
2022-11-16T09:46:45.721Z,9.77
2022-11-16T09:47:51.636Z,9.77
2022-11-16T09:48:59.020Z,9.76
2022-11-16T09:50:05.228Z,9.74
2022-11-16T09:51:10.583Z,9.72
2022-11-16T09:52:22.182Z,9.71
2022-11-16T09:53:32.431Z,9.71
2022-11-16T09:54:38.490Z,9.68
2022-11-16T09:55:47.150Z,9.68
2022-11-16T09:56:53.870Z,9.64
2022-11-16T09:57:59.441Z,9.62
2022-11-16T09:59:07.837Z,9.61
2022-11-16T10:00:15.593Z,9.58
2022-11-16T10:01:24.510Z,9.58
2022-11-16T10:02:31.282Z,9.57
2022-11-16T10:03:43.000Z,9.55
2022-11-16T10:04:53.694Z,9.54
2022-11-16T10:06:04.640Z,9.53
2022-11-16T10:07:13.808Z,9.53
2022-11-16T10:08:24.811Z,9.50
2022-11-16T10:09:29.423Z,9.48
2022-11-16T10:10:36.859Z,9.46
2022-11-16T10:11:53.807Z,9.44
2022-11-16T10:13:01.746Z,9.39
2022-11-16T10:14:20.085Z,9.37
2022-11-16T10:15:37.432Z,9.35
2022-11-16T10:16:46.363Z,9.33
2022-11-16T10:18:08.252Z,9.32
2022-11-16T10:19:18.829Z,9.31
2022-11-16T10:20:45.809Z,9.31
2022-11-16T10:21:54.183Z,9.30
2022-11-16T10:23:00.609Z,9.30
2022-11-16T10:24:31.920Z,9.30
2022-11-16T10:25:41.661Z,9.27
2022-11-16T10:26:48.771Z,9.27
2022-11-16T10:28:25.090Z,9.25
2022-11-16T10:29:39.072Z,9.25
2022-11-16T10:30:50.180Z,9.24
2022-11-16T10:32:04.295Z,9.25
2022-11-16T10:33:12.322Z,9.20
2022-11-16T10:34:18.210Z,9.19
2022-11-16T10:35:27.330Z,9.18
2022-11-16T10:36:31.052Z,9.17
2022-11-16T10:37:37.181Z,9.16
2022-11-16T10:38:41.040Z,9.17
2022-11-16T10:39:45.247Z,9.16
2022-11-16T10:40:52.542Z,9.17
2022-11-16T10:41:56.795Z,9.16
2022-11-16T10:43:04.245Z,9.16
2022-11-16T10:44:15.631Z,9.14
2022-11-16T10:45:22.088Z,9.14
2022-11-16T10:46:27.984Z,9.14
2022-11-16T10:47:38.780Z,9.16
2022-11-16T10:48:43.789Z,9.14
2022-11-16T10:49:55.274Z,9.14
2022-11-16T10:50:58.121Z,9.14
2022-11-16T10:52:01.883Z,9.13
2022-11-16T10:53:04.570Z,9.15
2022-11-16T10:54:14.383Z,9.16
2022-11-16T10:55:18.492Z,9.16
2022-11-16T10:56:24.242Z,9.18
2022-11-16T10:57:59.393Z,9.19
2022-11-16T10:59:04.512Z,9.20
2022-11-16T11:00:12.859Z,9.21
2022-11-16T11:01:31.064Z,9.20
2022-11-16T11:02:36.294Z,9.20
2022-11-16T11:03:39.073Z,9.22
2022-11-16T11:04:42.821Z,9.21
2022-11-16T11:05:52.582Z,9.21
2022-11-16T11:06:58.002Z,9.20
2022-11-16T11:08:02.714Z,9.18
2022-11-16T11:09:16.489Z,9.16
2022-11-16T11:10:28.529Z,9.14
2022-11-16T11:11:49.713Z,9.13
2022-11-16T11:13:09.142Z,9.12
2022-11-16T11:14:13.252Z,9.12
2022-11-16T11:15:26.266Z,9.14
2022-11-16T11:16:29.262Z,9.16
2022-11-16T11:17:33.990Z,9.18
2022-11-16T11:18:37.690Z,9.20
2022-11-16T11:19:40.368Z,9.23
2022-11-16T11:20:46.510Z,9.24
2022-11-16T11:21:49.713Z,9.24
2022-11-16T11:22:55.839Z,9.24
2022-11-16T11:24:42.437Z,9.24
2022-11-16T11:25:33.054Z,9.21
2022-11-16T11:26:39.349Z,9.20
2022-11-16T11:27:42.055Z,9.18
2022-11-16T11:28:49.992Z,9.17
2022-11-16T11:29:54.498Z,9.14
2022-11-16T11:31:01.863Z,9.13
2022-11-16T11:32:06.482Z,9.11
2022-11-16T11:33:11.983Z,9.09
2022-11-16T11:34:19.244Z,9.07
2022-11-16T11:35:28.149Z,9.06
2022-11-16T11:36:34.515Z,9.04
2022-11-16T11:37:39.947Z,9.02
2022-11-16T11:38:57.751Z,8.99
2022-11-16T11:40:23.038Z,8.95
2022-11-16T11:41:27.812Z,8.90
2022-11-16T11:42:30.503Z,8.89
2022-11-16T11:43:35.443Z,8.89
2022-11-16T11:44:47.733Z,8.88
2022-11-16T11:45:55.222Z,8.87
2022-11-16T11:47:50.524Z,8.87
2022-11-16T11:48:35.886Z,8.85
2022-11-16T11:49:41.829Z,8.85
2022-11-16T11:50:48.656Z,8.86
2022-11-16T11:51:52.532Z,8.87
2022-11-16T11:53:02.803Z,8.89
2022-11-16T11:54:06.929Z,8.90
2022-11-16T11:55:15.612Z,8.90
2022-11-16T11:56:19.388Z,8.88
2022-11-16T11:57:24.046Z,8.88
2022-11-16T11:58:32.529Z,8.87
2022-11-16T11:59:36.840Z,8.87
2022-11-16T12:00:49.521Z,8.87
2022-11-16T12:02:09.538Z,8.85
2022-11-16T12:03:37.220Z,8.84
2022-11-16T12:05:02.941Z,8.80
2022-11-16T12:06:12.433Z,8.79
2022-11-16T12:07:24.029Z,8.79
2022-11-16T12:08:55.002Z,8.81
2022-11-16T12:10:02.792Z,8.82
2022-11-16T12:11:11.615Z,8.83
2022-11-16T12:12:27.782Z,8.83
2022-11-16T12:13:44.393Z,8.83
2022-11-16T12:15:10.023Z,8.83
2022-11-16T12:16:19.788Z,8.83
2022-11-16T12:17:30.802Z,8.81
2022-11-16T12:18:43.702Z,8.79
2022-11-16T12:20:10.580Z,8.80
2022-11-16T12:21:16.482Z,8.79
2022-11-16T12:22:32.792Z,8.83
2022-11-16T12:23:57.180Z,8.86
2022-11-16T12:25:09.370Z,8.89
2022-11-16T12:26:16.720Z,8.92
2022-11-16T12:27:28.620Z,8.92
2022-11-16T12:28:56.790Z,8.94
2022-11-16T12:30:05.172Z,8.91
2022-11-16T12:31:27.511Z,8.91
2022-11-16T12:32:54.189Z,8.91
2022-11-16T12:34:02.534Z,8.92
2022-11-16T12:35:19.513Z,8.94
2022-11-16T12:36:32.790Z,8.96
2022-11-16T12:37:39.603Z,8.97
2022-11-16T12:38:57.653Z,8.98
2022-11-16T12:40:26.062Z,8.99
2022-11-16T12:41:53.624Z,8.97
2022-11-16T12:43:00.819Z,8.96
2022-11-16T12:44:05.430Z,8.96
2022-11-16T12:45:30.576Z,8.95
2022-11-16T12:46:45.202Z,8.94
2022-11-16T12:48:01.819Z,8.95
2022-11-16T12:49:20.861Z,8.96
2022-11-16T12:50:38.841Z,8.96
2022-11-16T12:51:56.002Z,8.96
2022-11-16T12:53:10.721Z,8.96
2022-11-16T12:54:27.821Z,8.95
2022-11-16T12:55:37.832Z,8.88
2022-11-16T12:56:49.250Z,8.79
2022-11-16T12:58:07.352Z,8.68
2022-11-16T12:59:29.791Z,8.55
2022-11-16T13:00:38.982Z,8.44
2022-11-16T13:01:49.002Z,8.33
2022-11-16T13:03:15.709Z,8.19
2022-11-16T13:04:23.426Z,8.09
2022-11-16T13:05:43.692Z,8.00
2022-11-16T13:06:51.379Z,7.90
2022-11-16T13:07:57.353Z,7.82
2022-11-16T13:09:04.743Z,7.76
2022-11-16T13:10:14.879Z,7.72
2022-11-16T13:11:22.011Z,7.66
2022-11-16T13:12:26.921Z,7.61
2022-11-16T13:13:36.357Z,7.57
2022-11-16T13:14:42.056Z,7.51
2022-11-16T13:15:48.133Z,7.45
2022-11-16T13:16:53.991Z,7.41
2022-11-16T13:18:01.391Z,7.36
2022-11-16T13:19:05.832Z,7.30
2022-11-16T13:20:24.219Z,7.26
2022-11-16T13:21:35.281Z,7.22
2022-11-16T13:22:40.165Z,7.19
2022-11-16T13:23:49.510Z,7.19
2022-11-16T13:24:58.859Z,7.17
2022-11-16T13:26:03.076Z,7.16
2022-11-16T13:27:18.891Z,7.15
2022-11-16T13:28:28.161Z,7.10
2022-11-16T13:29:39.260Z,7.09
2022-11-16T13:30:47.397Z,7.07
2022-11-16T13:31:55.240Z,7.04
2022-11-16T13:33:12.527Z,7.02
2022-11-16T13:34:18.480Z,6.99
2022-11-16T13:35:23.318Z,6.99
2022-11-16T13:36:47.820Z,6.99
2022-11-16T13:37:52.464Z,6.96
2022-11-16T13:38:55.193Z,6.94
2022-11-16T13:40:18.171Z,6.93
2022-11-16T13:41:28.422Z,6.90
2022-11-16T13:42:33.475Z,6.89
2022-11-16T13:43:36.229Z,6.88
2022-11-16T13:44:40.230Z,6.87
2022-11-16T13:45:50.995Z,6.86
2022-11-16T13:46:57.424Z,6.86
2022-11-16T13:48:02.012Z,6.86
2022-11-16T13:49:06.431Z,6.84
2022-11-16T13:50:20.293Z,6.83
2022-11-16T13:51:23.379Z,6.80
2022-11-16T13:53:31.793Z,6.78
2022-11-16T13:55:32.661Z,6.76
2022-11-16T13:56:49.139Z,6.75
2022-11-16T13:57:54.321Z,6.75
2022-11-16T13:58:58.455Z,6.75
2022-11-16T14:00:22.141Z,6.75
2022-11-16T14:01:24.972Z,6.74
2022-11-16T14:02:32.891Z,6.74
2022-11-16T14:03:39.821Z,6.74
2022-11-16T14:04:56.161Z,6.74
2022-11-16T14:05:59.133Z,6.71
2022-11-16T14:07:03.023Z,6.71
2022-11-16T14:08:47.629Z,6.69
2022-11-16T14:09:51.331Z,6.69
2022-11-16T14:11:02.344Z,6.69
2022-11-16T14:12:39.053Z,6.70
2022-11-16T14:13:45.760Z,6.69
2022-11-16T14:15:04.319Z,6.69
2022-11-16T14:16:47.281Z,6.67
2022-11-16T14:17:53.476Z,6.64
2022-11-16T14:18:58.464Z,6.64
2022-11-16T14:20:02.691Z,6.63
2022-11-16T14:21:14.920Z,6.63
2022-11-16T14:22:45.907Z,6.62
2022-11-16T14:24:09.222Z,6.58
2022-11-16T14:25:30.865Z,6.57
2022-11-16T14:26:44.757Z,6.56
2022-11-16T14:27:53.594Z,6.53
2022-11-16T14:29:08.882Z,6.54
2022-11-16T14:30:18.881Z,6.53
2022-11-16T14:31:25.511Z,6.53
2022-11-16T14:32:30.463Z,6.53
2022-11-16T14:33:36.852Z,6.52
2022-11-16T14:34:43.390Z,6.52
2022-11-16T14:35:52.763Z,6.50
2022-11-16T14:36:56.761Z,6.47
2022-11-16T14:38:01.539Z,6.48
2022-11-16T14:39:17.788Z,6.46
2022-11-16T14:40:21.722Z,6.44
2022-11-16T14:41:26.368Z,6.42
2022-11-16T14:42:38.241Z,6.41
2022-11-16T14:43:54.561Z,6.38
2022-11-16T14:45:02.241Z,6.38
2022-11-16T14:46:06.568Z,6.37
2022-11-16T14:47:22.244Z,6.35
2022-11-16T14:48:26.348Z,6.34
2022-11-16T14:49:33.688Z,6.33
2022-11-16T14:50:40.779Z,6.31
2022-11-16T14:51:51.564Z,6.31
2022-11-16T14:52:57.953Z,6.30
2022-11-16T14:54:04.821Z,6.30
2022-11-16T14:55:09.376Z,6.29
2022-11-16T14:56:15.608Z,6.27
2022-11-16T14:57:20.930Z,6.28
2022-11-16T14:58:24.112Z,6.29
2022-11-16T14:59:28.518Z,6.28
2022-11-16T15:00:31.222Z,6.29
2022-11-16T15:01:36.790Z,6.30
2022-11-16T15:02:40.566Z,6.29
2022-11-16T15:03:53.651Z,6.29
2022-11-16T15:04:58.979Z,6.27
2022-11-16T15:06:02.747Z,6.26
2022-11-16T15:07:07.352Z,6.24
2022-11-16T15:08:16.640Z,6.23
2022-11-16T15:09:24.049Z,6.20
2022-11-16T15:10:29.677Z,6.22
2022-11-16T15:11:52.934Z,6.21
2022-11-16T15:12:57.820Z,6.18
2022-11-16T15:14:01.778Z,6.19
2022-11-16T15:15:08.649Z,6.19
2022-11-16T15:16:17.222Z,6.19